Latest Coastal Weather Observations for Port Macquarie Airport

IDN60701

Issued at 1:32 am EST Saturday 28 May 2022 (issued every 10 minutes, with the page automatically refreshed every 10 minutes)

About coastal observations | Map of coastal stations | Coastal observations for NSW | Marine services | Other Formats
Station Details ID: 060168 Name: PORT MACQUARIE AIRPORT AWS Lat: -31.43 Lon: 152.87 Height: 4.45 m
Data from the previous 72 hours. | See also: Recent months at Port Macquarie Airport
Date/Time
EST
Wind Sea
Height
m
Swell Vis
km
Cloud Weather Temp
°C
Press
MSL
hPa
Rain since
9am
mm
Dir  Spd
kts
Gust
kts
Height
m
Period
s
Dir
28/01:30am CALM 0 4 - - - - 10 Clear - 13.6 1014.4 0.0
28/01:00am CALM 0 0 - - - - 10 - - 13.0 1014.5 0.0
28/12:30am CALM 0 0 - - - - 10 - - 13.7 1014.8 0.0
28/12:00am CALM 0 0 - - - - 10 - - 13.4 1015.0 0.0
 
Date/Time
EST
Wind Sea
Height
m
Swell Vis
km
Cloud Weather Temp
°C
Press
MSL
hPa
Rain since
9am
mm
Dir  Spd
kts
Gust
kts
Height
m
Period
s
Dir
27/11:30pm CALM 0 0 - - - - 10 - - 13.6 1015.1 0.0
27/11:00pm CALM 0 1 - - - - 10 - - 14.9 1015.5 0.0
27/10:30pm CALM 0 2 - - - - 10 Partly cloudy - 15.0 1015.8 0.0
27/10:00pm CALM 0 0 - - - - 10 Partly cloudy - 14.2 1016.1 0.0
27/09:30pm CALM 0 0 - - - - 10 - - 14.5 1016.1 0.0
27/09:24pm CALM 0 0 - - - - 10 - - 14.2 1016.1 0.0
27/09:00pm CALM 0 0 - - - - 0.5 - - 12.9 1016.2 0.0
27/08:45pm CALM 0 0 - - - - 5 Partly cloudy - 13.1 1016.2 0.0
27/08:30pm CALM 0 0 - - - - 10 Partly cloudy - 13.2 1016.3 0.0
27/08:06pm CALM 0 0 - - - - 5 - - 13.4 1016.1 0.0
27/08:00pm CALM 0 0 - - - - 10 - - 13.2 1016.1 0.0
27/07:30pm CALM 0 0 - - - - 10 - - 14.2 1016.2 0.0
27/07:00pm CALM 0 0 - - - - 10 - - 14.7 1016.3 0.0
27/06:30pm CALM 0 0 - - - - 10 - - 15.5 1016.2 0.0
27/06:00pm CALM 0 0 - - - - 10 - - 15.5 1015.9 0.0
27/05:30pm CALM 0 0 - - - - 10 - - 16.6 1015.8 0.0
27/05:00pm CALM 0 0 - - - - 10 - - 18.0 1015.7 0.0
27/04:30pm CALM 0 0 - - - - 10 - - 19.6 1015.7 0.0
27/04:00pm CALM 0 0 - - - - 10 - - 20.5 1015.6 0.0
27/03:30pm SSE 2 6 - - - - 10 - - 20.8 1015.7 0.0
27/03:00pm SSE 4 10 - - - - 10 - - 20.9 1015.6 0.0
27/02:30pm SE 1 5 - - - - 10 - - 21.4 1015.7 0.0
27/02:00pm SSE 3 7 - - - - 10 - - 21.3 1015.7 0.0
27/01:30pm ESE 4 7 - - - - 10 - - 21.2 1015.7 0.0
27/01:00pm ESE 5 8 - - - - 10 - - 20.4 1016.2 0.0
27/12:30pm CALM 0 1 - - - - 10 Partly cloudy - 20.4 1016.6 0.0
27/12:00pm CALM 0 4 - - - - 10 Cloudy - 21.7 1016.8 0.0
27/11:30am NW 1 5 - - - - 10 - - 21.5 1017.5 0.0
27/11:00am WNW 1 5 - - - - 10 - - 20.3 1018.2 0.0
27/10:30am CALM 0 4 - - - - 10 - - 19.2 1018.5 0.0
27/10:00am W 2 5 - - - - 10 - - 18.4 1018.8 0.0
27/09:30am WNW 3 6 - - - - 10 - - 17.4 1019.0 0.0
27/09:00am W 5 7 - - - - 10 - - 16.4 1019.1 3.4
27/08:30am W 5 6 - - - - 10 - - 15.3 1019.2 3.4
27/08:00am W 3 6 - - - - 10 - - 14.4 1019.2 3.4
27/07:30am W 3 7 - - - - 10 - - 13.2 1018.9 3.4
27/07:00am SW 1 6 - - - - 10 - - 12.4 1018.6 3.4
27/06:30am W 1 4 - - - - 10 - - 12.3 1018.4 3.4
27/06:00am WSW 1 4 - - - - 10 - - 12.3 1018.2 3.4
27/05:30am CALM 0 4 - - - - 10 - - 12.6 1018.2 3.4
27/05:00am CALM 0 0 - - - - 10 - - 12.6 1018.1 3.4
27/04:30am W 1 5 - - - - 10 - - 12.7 1018.1 3.4
27/04:00am W 1 4 - - - - 10 - - 12.8 1018.2 3.4
27/03:30am CALM 0 4 - - - - 10 - - 13.0 1018.1 3.4
27/03:00am W 1 5 - - - - 10 - Recent precip. 13.1 1018.2 3.4
27/02:30am W 2 6 - - - - 10 - - 13.3 1018.3 3.2
27/02:00am W 1 4 - - - - 10 - - 13.3 1018.3 3.2
27/01:30am W 2 5 - - - - 10 - - 13.5 1018.5 3.2
27/01:00am WSW 1 5 - - - - 10 - - 13.4 1018.6 3.2
27/12:30am W 2 5 - - - - 10 - - 13.6 1018.8 3.2
27/12:00am CALM 0 0 - - - - 10 - - 13.4 1019.0 3.2
 
Date/Time
EST
Wind Sea
Height
m
Swell Vis
km
Cloud Weather Temp
°C
Press
MSL
hPa
Rain since
9am
mm
Dir  Spd
kts
Gust
kts
Height
m
Period
s
Dir
26/11:30pm CALM 0 2 - - - - 10 - - 13.5 1019.2 3.2
26/11:00pm W 1 4 - - - - 10 - - 13.9 1019.5 3.2
26/10:30pm WNW 1 6 - - - - 10 Partly cloudy - 14.4 1019.8 3.2
26/10:03pm W 2 5 - - - - 10 Partly cloudy - 14.6 1020.1 3.2
26/10:00pm WSW 3 5 - - - - 10 Partly cloudy - 14.7 1020.1 3.2
26/09:46pm N 1 5 - - - - 5 Partly cloudy - 14.9 1020.3 2.8
26/09:30pm ENE 3 12 - - - - 10 Partly cloudy - 14.4 1020.4 2.4
26/09:11pm CALM 0 0 - - - - 10 Partly cloudy - 12.5 1020.2 2.4
26/09:00pm CALM 0 0 - - - - 4 - - 12.7 1020.1 2.4
26/08:30pm CALM 0 0 - - - - 4 Partly cloudy - 12.9 1020.2 2.4
26/08:19pm CALM 0 0 - - - - 4 Partly cloudy - 13.0 1020.3 2.4
26/08:00pm CALM 0 0 - - - - 10 - - 13.1 1020.3 2.4
26/07:31pm CALM 0 0 - - - - 10 - - 13.3 1020.2 2.4
26/07:30pm CALM 0 0 - - - - 10 - - 13.3 1020.2 2.4
26/07:21pm CALM 0 0 - - - - 5 - - 13.5 1020.1 2.4
26/07:00pm CALM 0 0 - - - - 10 - - 13.8 1019.9 2.4
26/06:30pm CALM 0 0 - - - - 10 - - 14.3 1019.5 2.4
26/06:00pm CALM 0 0 - - - - 10 - - 14.7 1019.3 2.4
26/05:30pm CALM 0 0 - - - - 10 - - 16.1 1019.0 2.4
26/05:00pm CALM 0 0 - - - - 10 - - 17.6 1018.9 2.4
26/04:30pm CALM 0 3 - - - - 10 - - 19.1 1018.8 2.4
26/04:00pm ENE 5 7 - - - - 10 - - 20.2 1018.7 2.4
26/03:30pm ENE 4 6 - - - - 10 - - 20.7 1018.7 2.4
26/03:00pm ENE 5 8 - - - - 10 - - 20.9 1018.7 2.4
26/02:30pm E 3 6 - - - - 10 - - 21.0 1018.6 2.4
26/02:00pm NE 2 7 - - - - 10 - - 21.4 1018.9 2.4
26/01:30pm CALM 0 0 - - - - 10 - - 21.5 1019.0 2.4
26/01:00pm CALM 0 0 - - - - 10 - - 20.8 1019.1 2.4
26/12:30pm CALM 0 0 - - - - 10 Partly cloudy - 18.5 1019.4 2.4
26/12:00pm CALM 0 0 - - - - 10 Mostly cloudy Recent precip. 18.3 1019.9 2.4
26/11:30am CALM 0 0 - - - - 10 Partly cloudy - 16.6 1020.3 2.4
26/11:00am NE 6 9 - - - - 5 Partly cloudy - 16.7 1020.9 0.6
26/10:30am WSW 1 4 - - - - 10 Partly cloudy - 19.4 1021.1 0.0
26/10:00am CALM 0 3 - - - - 10 - - 19.1 1021.3 0.0
26/09:30am WSW 2 5 - - - - 10 - - 17.2 1021.3 0.0
26/09:00am WNW 1 5 - - - - 10 Mostly clear - 16.1 1021.5 0.0
26/08:30am W 4 5 - - - - 10 Partly cloudy - 15.2 1021.4 0.0
26/08:00am W 1 4 - - - - 10 - - 13.9 1021.1 0.0
26/07:30am CALM 0 0 - - - - 10 - - 12.9 1020.9 0.0
26/07:00am WSW 1 4 - - - - 10 - - 12.8 1020.6 0.0
26/06:30am WSW 1 5 - - - - 10 - - 13.1 1020.5 0.0
26/06:00am CALM 0 3 - - - - 10 Mostly cloudy - 13.5 1020.2 0.0
26/05:30am W 5 7 - - - - 10 Partly cloudy - 13.9 1019.8 0.0
26/05:00am WNW 5 8 - - - - 10 Partly cloudy - 13.9 1019.7 0.0
26/04:30am W 1 4 - - - - 10 Partly cloudy - 13.8 1019.7 0.0
26/04:00am CALM 0 4 - - - - 10 - - 13.6 1019.6 0.0
26/03:30am CALM 0 0 - - - - 10 Partly cloudy - 13.4 1019.8 0.0
26/03:00am CALM 0 0 - - - - 10 Cloudy - 13.5 1019.9 0.0
26/02:30am CALM 0 0 - - - - 10 - - 13.5 1019.9 0.0
26/02:00am CALM 0 0 - - - - 10 - - 13.7 1020.1 0.0
26/01:30am CALM 0 0 - - - - 10 Partly cloudy - 13.7 1020.1 0.0
26/01:00am CALM 0 0 - - - - 10 Partly cloudy - 13.8 1020.3 0.0
26/12:30am CALM 0 0 - - - - 10 Partly cloudy - 14.3 1020.7 0.0
26/12:00am W 3 7 - - - - 10 Cloudy - 14.4 1020.8 0.0
 
Date/Time
EST
Wind Sea
Height
m
Swell Vis
km
Cloud Weather Temp
°C
Press
MSL
hPa
Rain since
9am
mm
Dir  Spd
kts
Gust
kts
Height
m
Period
s
Dir
25/11:30pm CALM 0 0 - - - - 10 Partly cloudy - 14.4 1020.9 0.0
25/11:00pm CALM 0 3 - - - - 10 - - 14.3 1021.1 0.0
25/10:30pm CALM 0 4 - - - - 10 - - 14.4 1021.3 0.0
25/10:00pm CALM 0 3 - - - - 10 - - 14.1 1021.4 0.0
25/09:30pm CALM 0 0 - - - - 10 - - 13.3 1021.5 0.0
25/09:00pm CALM 0 0 - - - - 10 Mostly cloudy - 13.7 1021.5 0.0
25/08:30pm CALM 0 0 - - - - 10 Partly cloudy - 13.6 1021.6 0.0
25/08:00pm CALM 0 0 - - - - 10 - - 13.7 1021.7 0.0
25/07:30pm CALM 0 0 - - - - 10 - - 13.8 1021.8 0.0
25/07:00pm CALM 0 0 - - - - 10 Partly cloudy - 14.5 1021.8 0.0
25/06:30pm CALM 0 0 - - - - 10 - - 14.4 1021.6 0.0
25/06:00pm CALM 0 0 - - - - 10 Mostly clear - 14.8 1021.4 0.0
25/05:30pm CALM 0 0 - - - - 10 - - 15.3 1021.3 0.0
25/05:00pm CALM 0 1 - - - - 10 - - 16.6 1020.9 0.0
25/04:30pm CALM 0 0 - - - - 10 - - 17.3 1020.8 0.0
25/04:00pm S 1 4 - - - - 10 - - 18.0 1020.7 0.0
25/03:30pm SE 4 6 - - - - 10 - - 18.4 1020.8 0.0
25/03:00pm SSW 5 8 - - - - 10 - - 19.2 1020.6 0.0
25/02:30pm S 6 9 - - - - 10 Partly cloudy - 19.1 1020.7 0.0
25/02:00pm SSE 6 9 - - - - 10 Partly cloudy - 19.6 1020.9 0.0
25/01:30pm SE 6 10 - - - - 10 Partly cloudy - 20.2 1021.1 0.0
25/01:00pm S 3 7 - - - - 10 Partly cloudy - 19.8 1021.4 0.0
25/12:30pm SSW 3 6 - - - - 10 Partly cloudy - 19.4 1021.8 0.0
25/12:00pm WSW 4 7 - - - - 10 - - 19.4 1022.4 0.0
25/11:30am WSW 1 5 - - - - 10 - - 19.5 1022.8 0.0
25/11:00am SW 3 7 - - - - 10 - - 18.7 1023.4 0.0
25/10:30am WSW 5 7 - - - - 10 - - 18.0 1023.9 0.0
25/10:00am W 5 8 - - - - 10 - - 17.3 1024.4 0.0
25/09:30am W 6 8 - - - - 10 - - 16.3 1024.6 0.0
25/09:00am W 6 8 - - - - 10 - - 15.3 1024.5 5.2
25/08:30am WNW 3 6 - - - - 10 - - 14.7 1024.4 5.2
25/08:00am W 5 7 - - - - 10 - - 13.7 1024.3 5.2
25/07:30am W 5 7 - - - - 10 - - 12.5 1024.2 5.2
25/07:00am WSW 1 4 - - - - 10 - - 11.8 1024.0 5.2
25/06:30am WSW 1 5 - - - - 10 - - 11.5 1023.9 5.2
25/06:00am W 3 6 - - - - 10 - - 11.6 1023.9 5.2
25/05:30am CALM 0 1 - - - - 10 - - 11.4 1023.5 5.2
25/05:00am CALM 0 1 - - - - 10 - - 11.6 1023.5 5.2
25/04:30am SW 1 6 - - - - 10 - - 12.0 1023.6 5.2
25/04:00am CALM 0 2 - - - - 10 - - 12.2 1023.6 5.2
25/03:30am CALM 0 0 - - - - 10 Partly cloudy - 12.6 1023.6 5.2
25/03:00am W 1 5 - - - - 10 Partly cloudy - 13.2 1023.6 5.0
25/02:30am W 7 10 - - - - 10 Partly cloudy - 13.4 1023.8 5.0
25/02:00am WSW 4 7 - - - - 10 Cloudy - 13.5 1024.3 5.0

Other formats

Comma delimited format used in spreadsheet applications
http://www.bom.gov.au/fwo/IDN60701/IDN60701.94799.axf

JavaScript Object Notation format (JSON) in row-major order
http://www.bom.gov.au/fwo/IDN60701/IDN60701.94799.json

Data quality

Most of these data are generated automatically and are frequently updated. Quality checks on data are not normally performed. It is possible for incorrect values to appear. Refer to information at About Latest Weather Observations and please check the disclaimer before using these data.